Flight Track Log - Related Links

Times and Time Zones

All times are in EDT time to prevent confusion due to time zone crossing. See the UAL4588 flight status page for this flight to view local times or setup timezone preferences in your user account.

Time Position Orientation Groundspeed Altitude Reporting Facility
EDT Latitude Longitude Course Direction KTS MPH feet Rate Location/Type
Sun 06:27:54 PM 42.8586 -85.5592 107° East 175 201 35,000  Level Chicago Center
Sun 06:28:56 PM 42.8147 -85.5244 150° Southeast 222 255 4,300 -13,645 Descending Chicago Center
Sun 06:29:58 PM 42.7739 -85.4133 117° Southeast 283 326 6,800 2,565 Climbing Chicago Center
Sun 06:30:00 PM 42.7740 -85.1198 105° East  Level FlightAware Approximate
Sun 06:31:00 PM 42.7462 -84.9837 107° East  Level FlightAware Approximate
Sun 06:31:00 PM 42.7511 -85.3011 105° East 302 348 9,600  Level Chicago Center
Sun 06:32:00 PM 42.7152 -84.8489 107° East  Level FlightAware Approximate
Sun 06:32:02 PM 42.7297 -85.1850 104° East 313 360 11,700  Level Chicago Center
Sun 06:33:00 PM 42.6846 -84.7140 107° East  Level FlightAware Approximate
Sun 06:33:04 PM 42.7039 -85.0525 105° East 353 406 13,000  Level Chicago Center
Sun 06:34:06 PM 42.6781 -84.9139 104° East 373 429 14,900 1,742 Climbing Chicago Center
Sun 06:35:08 PM 42.6428 -84.7464 106° East 384 442 16,600 1,392 Climbing Chicago Center
Sun 06:36:11 PM 42.6219 -84.5936 100° East 409 471 17,800 1,175 Climbing Chicago Center
Sun 06:36:45 PM 42.6078 -84.5161 104° East 402 463 18,500 1,404 Climbing Cleveland Center
Sun 06:37:45 PM 42.5900 -84.3597 99° East 408 470 20,000 1,500 Climbing Cleveland Center
Sun 06:38:45 PM 42.5700 -84.2006 100° East 420 483 21,500 1,500 Climbing Cleveland Center
Sun 06:39:45 PM 42.5500 -84.0389 99° East 425 489 23,000 1,450 Climbing Cleveland Center
Sun 06:40:45 PM 42.5317 -83.8856 99° East 430 495 24,400 1,400 Climbing Cleveland Center
Sun 06:41:45 PM 42.5092 -83.7239 101° East 430 495 25,800 1,300 Climbing Cleveland Center
Sun 06:42:45 PM 42.4867 -83.5481 100° East 430 495 27,000 1,200 Climbing Cleveland Center
Sun 06:43:45 PM 42.4678 -83.3867 99° East 430 495 28,200 1,150 Climbing Cleveland Center
Sun 06:44:45 PM 42.4444 -83.2253 101° East 430 495 29,300 1,100 Climbing Cleveland Center
Sun 06:45:45 PM 42.4231 -83.0583 100° East 430 495 30,400 1,050 Climbing Cleveland Center
Sun 06:46:45 PM 42.3994 -82.8917 101° East 442 509 31,400 1,000 Climbing Cleveland Center
Sun 06:47:45 PM 42.3758 -82.7164 100° East 452 520 32,400 1,100 Climbing Cleveland Center
Sun 06:48:45 PM 42.3517 -82.5414 101° East 463 533 33,600 1,150 Climbing Cleveland Center
Sun 06:49:45 PM 42.3275 -82.3639 100° East 475 547 34,700 706 Climbing Cleveland Center
Sun 06:50:44 PM 42.3011 -82.1861 101° East 475 547 35,000 150 Climbing Cleveland Center
Sun 06:51:45 PM 42.2744 -81.9947 101° East 499 574 35,000  Level Cleveland Center
Sun 06:52:45 PM 42.2472 -81.8089 101° East 499 574 35,000  Level Cleveland Center
Sun 06:53:45 PM 42.2219 -81.6431 102° East 508 585 35,000  Level Cleveland Center
Sun 06:54:45 PM 42.1964 -81.4575 100° East 513 590 35,000  Level Cleveland Center
Sun 06:55:44 PM 42.1683 -81.2694 101° East 502 578 35,000  Level Cleveland Center
Sun 06:56:44 PM 42.1403 -81.0872 102° East 501 577 35,000  Level Cleveland Center
Sun 06:57:44 PM 42.1117 -80.8967 101° East 507 583 35,000  Level Cleveland Center
Sun 06:58:45 PM 42.0786 -80.6950 102° East 507 583 35,000  Level Cleveland Center
Sun 06:59:44 PM 42.0517 -80.5161 101° East 502 578 35,000  Level Cleveland Center
Sun 07:00:44 PM 42.0244 -80.3372 102° East 496 571 35,000  Level Cleveland Center
Sun 07:01:44 PM 41.9842 -80.1642 107° East 484 557 35,000  Level Cleveland Center
Sun 07:02:44 PM 41.9458 -79.9886 106° East 484 557 35,000  Level Cleveland Center
Sun 07:03:44 PM 41.9117 -79.8131 105° East 483 556 35,000  Level Cleveland Center
Sun 07:04:44 PM 41.8769 -79.6378 105° East 490 564 35,000  Level Cleveland Center
Sun 07:05:44 PM 41.8356 -79.4572 107° East 495 570 35,000  Level Cleveland Center
Sun 07:06:45 PM 41.8006 -79.2825 105° East 495 570 35,000  Level Cleveland Center
Sun 07:07:44 PM 41.7672 -79.1244 106° East 488 562 35,000  Level Cleveland Center
Sun 07:08:45 PM 41.7294 -78.9472 106° East 488 562 35,000  Level Cleveland Center
Sun 07:09:45 PM 41.6847 -78.7481 107° East 493 567 35,000  Level Cleveland Center
Sun 07:11:29 PM 41.6225 -78.4581 106° East 493 567 35,000  Level New York Center
Sun 07:12:29 PM 41.5836 -78.2872 107° East 488 562 35,000 -750 Level New York Center
Sun 07:13:29 PM 41.5525 -78.1506 107° East 488 562 33,500 -1,983 Descending New York Center
Sun 07:14:30 PM 41.5139 -77.9633 105° East 481 554 31,000 -1,240 Descending New York Center
Sun 07:15:30 PM 41.4886 -77.7944 101° East 469 540 31,000  Level New York Center
Sun 07:16:28 PM 41.4633 -77.6200 101° East 469 540 31,000  Level New York Center
Sun 07:17:29 PM 41.4378 -77.4458 101° East 469 540 31,000  Level New York Center
Sun 07:18:29 PM 41.4072 -77.2492 102° East 480 552 31,000  Level New York Center
Sun 07:19:30 PM 41.3811 -77.0725 101° East 485 558 31,000 -49 Level New York Center
Sun 07:20:31 PM 41.3550 -76.8986 101° East 485 558 30,900 -1,261 Descending New York Center
Sun 07:21:29 PM 41.3242 -76.7244 103° East 480 552 28,500 -2,797 Descending New York Center
Sun 07:22:29 PM 41.2783 -76.5547 110° East 480 552 25,400 -2,678 Descending New York Center
Sun 07:23:30 PM 41.2322 -76.3908 110° East 485 558 23,100 -2,331 Descending New York Center
Sun 07:24:30 PM 41.1933 -76.2442 109° East 478 550 20,700 -2,430 Descending New York Center
Sun 07:25:31 PM 41.1492 -76.0669 108° East 467 537 18,200 -2,269 Descending New York Center
Sun 07:26:29 PM 41.1094 -75.9317 111° Southeast 446 513 16,200 -1,627 Descending New York Center
Sun 07:27:29 PM 41.0700 -75.7800 109° East 436 502 15,000 -1,339 Descending New York Center
Sun 07:28:30 PM 41.0244 -75.6200 111° Southeast 431 496 13,500 -1,008 Descending New York Center
Sun 07:29:28 PM 40.9825 -75.4767 111° Southeast 423 487 13,000 -706 Descending New York Center
Sun 07:30:29 PM 40.9497 -75.3536 109° East 394 453 12,100 -1,820 Descending New York Center
Sun 07:31:30 PM 40.9167 -75.2386 111° Southeast 348 400 9,300 -2,311 Descending New York Center
Sun 07:32:31 PM 40.8853 -75.1297 111° Southeast 320 368 7,400 -1,160 Descending New York Center
Sun 07:33:29 PM 40.8578 -75.0319 110° East 320 368 7,000 -203 Descending New York Center
Sun 07:34:29 PM 40.8447 -74.9242 99° East 310 357 7,000  Level New York Center
Sun 07:35:30 PM 40.8592 -74.8069 81° East 306 352 7,000 -298 Level New York Center
Sun 07:36:30 PM 40.8781 -74.6844 78° East 311 358 6,400 -508 Descending New York Center
Sun 07:37:28 PM 40.8936 -74.5867 78° East 311 358 6,000 -559 Descending New York Center
Sun 07:38:28 PM 40.9142 -74.4669 77° East 306 352 5,300 -496 Descending New York Center
Sun 07:39:29 PM 40.9336 -74.3747 74° East 296 341 5,000 -333 Descending New York Center
Sun 07:39:58 PM 40.9500 -74.3000 74° East 300 345 4,800 -674 Descending New York TRACON
Sun 07:40:58 PM 40.9667 -74.2167 75° East 268 308 4,000 -600 Descending New York TRACON
Sun 07:41:58 PM 40.9500 -74.1333 105° East 239 275 3,600 -500 Descending New York TRACON
Sun 07:42:58 PM 40.9000 -74.0833 143° Southeast 225 259 3,000 -300 Descending New York TRACON
Sun 07:43:58 PM 40.8333 -74.0667 169° South 186 214 3,000 -300 Level New York TRACON
Sun 07:44:58 PM 40.8000 -74.1000 217° Southwest 168 193 2,400 -600 Descending New York TRACON

Login

Don't have an account? Register now (free) for customized features, flight alerts, and more!